createdAt,value
2022-09-07T07:48:48.124Z,100771.53
2022-09-07T07:52:49.914Z,100771.56
2022-09-07T07:54:38.435Z,100772.72
2022-09-07T07:57:24.109Z,100768.88
2022-09-07T08:00:09.576Z,100772.97
2022-09-07T08:02:55.522Z,100773.41
2022-09-07T08:05:40.450Z,100778.88
2022-09-07T08:08:25.759Z,100785.50
2022-09-07T08:11:17.021Z,100790.75
2022-09-07T08:14:06.119Z,100782.59
2022-09-07T08:16:51.453Z,100791.06
2022-09-07T08:19:36.962Z,100785.56
2022-09-07T08:22:22.006Z,100786.13
2022-09-07T08:25:07.660Z,100784.59
2022-09-07T08:27:53.332Z,100791.06
2022-09-07T08:30:39.290Z,100795.31
2022-09-07T08:33:24.967Z,100795.59
2022-09-07T08:36:18.063Z,100800.38
2022-09-07T08:39:04.236Z,100799.66
2022-09-07T08:41:55.691Z,100794.03
2022-09-07T08:44:40.951Z,100792.59
2022-09-07T08:47:53.060Z,100801.91
2022-09-07T08:50:43.861Z,100802.91
2022-09-07T08:53:29.654Z,100795.03
2022-09-07T08:56:22.890Z,100811.47
2022-09-07T08:59:34.855Z,100799.81
2022-09-07T09:02:28.377Z,100810.22
2022-09-07T09:05:37.024Z,100809.38
2022-09-07T09:08:25.497Z,100805.97
2022-09-07T09:11:15.657Z,100815.28
2022-09-07T09:14:01.101Z,100806.13
2022-09-07T09:16:49.708Z,100809.22
2022-09-07T09:19:53.661Z,100811.34
2022-09-07T09:22:39.389Z,100812.75
2022-09-07T09:25:32.263Z,100815.00
2022-09-07T09:28:17.602Z,100805.41
2022-09-07T09:31:03.688Z,100806.28
2022-09-07T09:34:07.498Z,100803.88
2022-09-07T09:36:54.053Z,100804.03
2022-09-07T09:39:40.168Z,100805.44
2022-09-07T09:42:27.173Z,100806.41
2022-09-07T09:45:16.890Z,100800.94
2022-09-07T09:48:03.253Z,100795.31
2022-09-07T09:53:59.551Z,100796.28
2022-09-07T09:56:46.051Z,100794.56
2022-09-07T10:05:47.412Z,100791.22
2022-09-07T10:08:34.356Z,100781.19
2022-09-07T10:14:45.632Z,100780.59
2022-09-07T10:17:41.742Z,100774.75
2022-09-07T10:20:38.035Z,100770.81
2022-09-07T10:23:24.008Z,100768.97
2022-09-07T10:26:20.691Z,100767.00
2022-09-07T10:29:15.772Z,100757.41
2022-09-07T10:32:07.809Z,100754.31
2022-09-07T10:34:52.982Z,100751.47
2022-09-07T10:37:44.583Z,100742.75
2022-09-07T10:40:40.200Z,100752.88
2022-09-07T10:43:28.646Z,100751.06
2022-09-07T10:53:39.063Z,100749.09
2022-09-07T10:56:22.499Z,100738.09
2022-09-07T10:59:23.671Z,100735.28
2022-09-07T11:02:28.053Z,100739.66
2022-09-07T11:05:35.166Z,100738.22
2022-09-07T11:08:23.693Z,100733.56
2022-09-07T11:11:12.138Z,100727.81
2022-09-07T11:14:13.141Z,100728.50
2022-09-07T11:17:01.685Z,100719.88
2022-09-07T11:19:47.113Z,100716.06
2022-09-07T11:22:36.404Z,100723.38
2022-09-07T11:25:32.267Z,100709.69
2022-09-07T11:28:20.436Z,100708.38
2022-09-07T11:31:13.706Z,100697.97
2022-09-07T11:37:11.206Z,100697.97
2022-09-07T11:40:11.992Z,100698.22
2022-09-07T11:43:02.956Z,100695.13
2022-09-07T11:45:57.030Z,100689.34
2022-09-07T11:48:44.932Z,100688.66
2022-09-07T11:51:37.186Z,100680.41
2022-09-07T11:54:35.457Z,100681.84
2022-09-07T11:57:41.031Z,100673.81
2022-09-07T12:00:44.772Z,100674.50
2022-09-07T12:03:33.459Z,100673.59
2022-09-07T12:06:35.518Z,100672.84
2022-09-07T12:09:39.887Z,100659.22
2022-09-07T12:12:48.574Z,100649.66
2022-09-07T12:15:36.984Z,100654.41
2022-09-07T12:18:26.416Z,100651.97
2022-09-07T12:21:30.440Z,100650.66
2022-09-07T12:24:34.887Z,100642.13
2022-09-07T12:27:20.271Z,100639.28
2022-09-07T12:30:05.624Z,100637.56
2022-09-07T12:32:54.285Z,100638.81
2022-09-07T12:35:40.770Z,100631.34
2022-09-07T12:38:32.208Z,100636.22
2022-09-07T12:41:24.961Z,100636.81
2022-09-07T12:44:15.276Z,100615.16
2022-09-07T12:47:02.194Z,100624.19
2022-09-07T12:50:06.665Z,100608.97
2022-09-07T12:53:08.095Z,100606.03
2022-09-07T12:56:17.071Z,100610.41
2022-09-07T12:59:17.321Z,100610.22
2022-09-07T13:02:05.217Z,100601.09
2022-09-07T13:05:02.473Z,100593.50
2022-09-07T13:08:06.952Z,100585.47
2022-09-07T13:10:53.913Z,100581.00
2022-09-07T13:19:51.072Z,100572.41
2022-09-07T13:22:36.954Z,100573.56
2022-09-07T13:25:23.789Z,100570.66
2022-09-07T13:28:21.593Z,100557.41
2022-09-07T13:31:07.234Z,100563.19
2022-09-07T13:33:53.293Z,100558.25
2022-09-07T13:36:47.995Z,100559.56
2022-09-07T13:39:42.171Z,100554.50
2022-09-07T13:42:27.339Z,100548.44
2022-09-07T13:45:31.391Z,100548.03
2022-09-07T13:48:35.647Z,100549.28
2022-09-07T13:51:27.334Z,100540.56
2022-09-07T13:54:19.449Z,100537.34
2022-09-07T13:57:37.061Z,100538.59
2022-09-07T14:00:22.798Z,100531.72
2022-09-07T14:03:14.661Z,100531.59
2022-09-07T14:06:18.837Z,100535.41
2022-09-07T14:09:04.458Z,100536.50
2022-09-07T14:11:51.550Z,100528.63
2022-09-07T14:14:36.567Z,100518.66
2022-09-07T14:17:22.011Z,100519.91
2022-09-07T14:20:13.404Z,100507.41
2022-09-07T14:22:59.442Z,100504.88
2022-09-07T14:28:51.863Z,100494.34
2022-09-07T14:31:37.519Z,100490.97
2022-09-07T14:34:24.924Z,100490.69
2022-09-07T14:37:13.389Z,100491.25
2022-09-07T14:39:59.396Z,100481.53
2022-09-07T14:42:45.278Z,100484.66
2022-09-07T14:45:32.721Z,100486.19
2022-09-07T14:48:29.243Z,100487.63
2022-09-07T14:51:32.663Z,100488.44
2022-09-07T14:54:29.720Z,100487.47
2022-09-07T14:57:15.275Z,100481.28
2022-09-07T15:00:21.289Z,100486.91
2022-09-07T15:03:25.720Z,100479.44
2022-09-07T15:07:00.965Z,100484.09
2022-09-07T15:09:36.156Z,100464.69
2022-09-07T15:12:37.919Z,100459.50
2022-09-07T15:15:32.157Z,100463.16
2022-09-07T15:18:36.473Z,100465.69
2022-09-07T15:21:26.470Z,100472.84
2022-09-07T15:24:12.240Z,100470.19
2022-09-07T15:27:05.232Z,100482.97
2022-09-07T15:29:50.587Z,100490.00
2022-09-07T15:32:36.033Z,100497.16
2022-09-07T15:35:21.074Z,100492.38
2022-09-07T15:38:59.520Z,100493.38
2022-09-07T15:41:23.642Z,100490.00
2022-09-07T15:44:09.656Z,100495.47
2022-09-07T15:50:00.350Z,100489.00
2022-09-07T15:52:46.274Z,100482.66
2022-09-07T15:55:31.883Z,100480.69
2022-09-07T15:58:17.082Z,100488.00
2022-09-07T16:04:12.273Z,100487.31
2022-09-07T16:06:58.005Z,100489.00
2022-09-07T16:09:43.686Z,100491.22
2022-09-07T16:15:34.841Z,100486.44
2022-09-07T16:18:20.499Z,100478.44
2022-09-07T16:21:11.752Z,100480.53
2022-09-07T16:23:57.614Z,100470.88
2022-09-07T16:26:42.879Z,100469.03
2022-09-07T16:29:28.156Z,100458.44
2022-09-07T16:35:18.977Z,100460.06
2022-09-07T16:41:29.454Z,100471.41
2022-09-07T16:44:14.608Z,100457.25
2022-09-07T16:46:59.875Z,100446.88
2022-09-07T16:49:45.528Z,100452.22
2022-09-07T16:52:30.742Z,100450.09
2022-09-07T16:55:16.710Z,100451.91
2022-09-07T17:01:08.576Z,100473.56
2022-09-07T17:03:53.639Z,100474.38
2022-09-07T17:06:39.717Z,100483.25
2022-09-07T17:09:27.067Z,100488.47
2022-09-07T17:12:12.960Z,100481.97
2022-09-07T17:14:58.871Z,100479.97
2022-09-07T17:17:44.058Z,100498.56
2022-09-07T17:20:29.334Z,100498.41
2022-09-07T17:23:16.241Z,100498.94
2022-09-07T17:26:06.433Z,100488.97
2022-09-07T17:28:52.561Z,100487.00
2022-09-07T17:34:43.381Z,100485.81
2022-09-07T17:37:28.523Z,100481.19
2022-09-07T17:40:13.824Z,100482.59
2022-09-07T17:46:05.586Z,100484.94
2022-09-07T17:48:52.544Z,100476.94
2022-09-07T17:51:38.208Z,100457.91
2022-09-07T17:54:24.921Z,100448.88
2022-09-07T17:57:10.683Z,100455.34
2022-09-07T18:00:12.396Z,100459.59
2022-09-07T18:02:58.901Z,100463.25
2022-09-07T18:05:44.892Z,100446.03
2022-09-07T18:08:30.333Z,100463.63
2022-09-07T18:14:22.805Z,100457.66
2022-09-07T18:17:07.914Z,100460.34
2022-09-07T18:19:53.155Z,100468.06
2022-09-07T18:22:38.357Z,100471.97
2022-09-07T18:25:23.613Z,100474.34
2022-09-07T18:31:14.558Z,100486.28
2022-09-07T18:34:01.739Z,100480.78
2022-09-07T18:36:47.090Z,100490.19
2022-09-07T18:39:33.633Z,100489.16
2022-09-07T18:42:19.044Z,100492.56
2022-09-07T18:48:13.324Z,100495.25
2022-09-07T18:51:00.359Z,100501.56
2022-09-07T18:53:46.111Z,100499.28
2022-09-07T18:56:31.493Z,100496.47
2022-09-07T18:59:16.813Z,100500.66
2022-09-07T19:02:05.030Z,100498.56
2022-09-07T19:07:56.802Z,100508.78
2022-09-07T19:10:42.097Z,100516.81
2022-09-07T19:13:27.575Z,100517.00
2022-09-07T19:16:16.955Z,100517.84
2022-09-07T19:19:03.251Z,100516.69
2022-09-07T19:21:48.864Z,100521.06
2022-09-07T19:24:34.528Z,100521.88
2022-09-07T19:27:20.140Z,100516.50
2022-09-07T19:30:05.673Z,100511.03
2022-09-07T19:32:50.935Z,100519.72
2022-09-07T19:35:36.532Z,59895.31
2022-09-07T19:38:21.964Z,59895.31
2022-09-07T19:41:08.401Z,59895.31
2022-09-07T19:43:54.035Z,59895.31
2022-09-07T19:46:41.220Z,59895.31
2022-09-07T19:49:27.096Z,59895.31
2022-09-07T19:52:12.664Z,59895.31
2022-09-07T19:55:00.390Z,59895.31
2022-09-07T19:57:46.978Z,59895.31
2022-09-07T20:00:32.581Z,59895.31
2022-09-07T20:03:17.701Z,59895.31
2022-09-07T20:06:10.150Z,59895.31
2022-09-07T20:08:55.910Z,59895.31
2022-09-07T20:11:46.138Z,59895.31
2022-09-07T20:14:32.016Z,59895.31
2022-09-07T20:17:17.344Z,59895.31
2022-09-07T20:20:02.864Z,59895.31
2022-09-07T20:22:48.846Z,59895.31
2022-09-07T20:25:34.793Z,59895.31
2022-09-07T20:28:20.383Z,59895.31
2022-09-07T20:31:15.622Z,59895.31
2022-09-07T20:34:00.833Z,59895.31
2022-09-07T20:36:46.180Z,59895.31
2022-09-07T20:39:34.664Z,59895.31
2022-09-07T20:42:23.861Z,59895.31
2022-09-07T20:45:09.460Z,59895.31
2022-09-07T20:47:54.850Z,59895.31
2022-09-07T20:50:40.379Z,59895.31
2022-09-07T20:53:26.091Z,59895.31
2022-09-07T20:56:15.283Z,59895.31
2022-09-07T20:59:02.266Z,59895.31
2022-09-07T21:01:47.848Z,59895.31
2022-09-07T21:04:32.890Z,59895.31
2022-09-07T21:07:18.145Z,59895.31
2022-09-07T21:10:06.779Z,59895.31
2022-09-07T21:12:53.409Z,59895.31
2022-09-07T21:15:39.625Z,59895.31
2022-09-07T21:18:25.473Z,59895.31
2022-09-07T21:21:20.427Z,59895.31
2022-09-07T21:24:06.609Z,59895.31
2022-09-07T21:26:51.996Z,59895.31
2022-09-07T21:29:37.238Z,59895.31
2022-09-07T21:32:22.594Z,59895.31
2022-09-07T21:35:10.242Z,59895.31
2022-09-07T21:37:55.351Z,59895.31
2022-09-07T21:40:40.979Z,59895.31
2022-09-07T21:43:26.217Z,59895.31
2022-09-07T21:46:16.459Z,59895.31
2022-09-07T21:49:01.614Z,59895.31
2022-09-07T21:51:46.976Z,59895.31
2022-09-07T21:54:32.010Z,59895.31
2022-09-07T21:57:17.466Z,59895.31
2022-09-07T22:00:04.269Z,59895.31
2022-09-07T22:02:51.182Z,59895.31
2022-09-07T22:05:37.724Z,59895.31
2022-09-07T22:08:23.211Z,59895.31
2022-09-07T22:11:10.245Z,59895.31
2022-09-07T22:13:57.222Z,59895.31
2022-09-07T22:16:42.665Z,59895.31
2022-09-07T22:19:27.826Z,59895.31
2022-09-07T22:22:12.968Z,59895.31
2022-09-07T22:24:58.151Z,59895.31
2022-09-07T22:27:43.400Z,59895.31
2022-09-07T22:30:28.424Z,59895.31
2022-09-07T22:33:13.618Z,59895.31
2022-09-07T22:36:11.310Z,59895.31
2022-09-07T22:38:58.765Z,59895.31
2022-09-07T22:41:44.648Z,59895.31
2022-09-07T22:44:30.246Z,59895.31
2022-09-07T22:47:15.868Z,59895.31
2022-09-07T22:50:00.958Z,59895.31
2022-09-07T22:52:46.372Z,59895.31
2022-09-07T22:55:31.649Z,59895.31
2022-09-07T22:58:16.872Z,59895.31
2022-09-07T23:01:02.309Z,59895.31
2022-09-07T23:03:47.968Z,59895.31
2022-09-07T23:06:37.854Z,59895.31
2022-09-07T23:09:23.294Z,59895.31
2022-09-07T23:12:08.458Z,59895.31
2022-09-07T23:14:53.660Z,59895.31
2022-09-07T23:17:38.979Z,59895.31
2022-09-07T23:20:25.649Z,59895.31
2022-09-07T23:23:11.250Z,59895.31
2022-09-07T23:25:56.428Z,59895.31
2022-09-07T23:28:41.629Z,59895.31
2022-09-07T23:31:28.085Z,59895.31
2022-09-07T23:34:13.205Z,59895.31
2022-09-07T23:36:58.546Z,59895.31
2022-09-07T23:39:44.634Z,59895.31
2022-09-07T23:42:30.110Z,59895.31
2022-09-07T23:45:15.539Z,59895.31
2022-09-07T23:48:00.815Z,59895.31
2022-09-07T23:50:46.658Z,59895.31
2022-09-07T23:53:32.838Z,59895.31
2022-09-07T23:56:18.286Z,59895.31
2022-09-07T23:59:05.595Z,59895.31
